createdAt,value
2022-08-18T00:00:20.318Z,17.55
2022-08-18T00:02:56.745Z,17.63
2022-08-18T00:05:27.777Z,17.67
2022-08-18T00:07:57.340Z,17.65
2022-08-18T00:10:24.167Z,17.65
2022-08-18T00:12:51.027Z,17.71
2022-08-18T00:15:24.260Z,17.74
2022-08-18T00:17:51.151Z,17.76
2022-08-18T00:20:24.209Z,17.75
2022-08-18T00:22:52.296Z,17.75
2022-08-18T00:25:20.639Z,17.72
2022-08-18T00:27:47.322Z,17.75
2022-08-18T00:30:18.307Z,17.77
2022-08-18T00:32:50.232Z,17.77
2022-08-18T00:35:19.561Z,17.72
2022-08-18T00:37:46.129Z,17.64
2022-08-18T00:40:16.729Z,17.59
2022-08-18T00:42:50.385Z,17.57
2022-08-18T00:45:21.346Z,17.52
2022-08-18T00:47:47.836Z,17.57
2022-08-18T00:50:22.712Z,17.57
2022-08-18T00:52:56.380Z,17.57
2022-08-18T00:55:25.350Z,17.51
2022-08-18T00:57:57.585Z,17.48
2022-08-18T01:00:24.347Z,17.49
2022-08-18T01:02:57.447Z,17.41
2022-08-18T01:05:41.171Z,17.30
2022-08-18T01:08:12.079Z,17.34
2022-08-18T01:10:40.542Z,17.24
2022-08-18T01:13:07.564Z,17.21
2022-08-18T01:15:34.937Z,17.24
2022-08-18T01:18:25.065Z,17.22
2022-08-18T01:21:22.274Z,17.19
2022-08-18T01:23:50.866Z,17.16
2022-08-18T01:26:18.589Z,17.14
2022-08-18T01:28:46.733Z,17.16
2022-08-18T01:31:22.097Z,17.12
2022-08-18T01:33:48.658Z,17.08
2022-08-18T01:36:18.761Z,17.12
2022-08-18T01:38:48.589Z,17.08
2022-08-18T01:41:26.943Z,17.01
2022-08-18T01:43:58.588Z,16.97
2022-08-18T01:46:28.034Z,16.99
2022-08-18T01:48:54.973Z,16.94
2022-08-18T01:51:38.781Z,16.86
2022-08-18T01:54:09.675Z,16.85
2022-08-18T01:56:36.952Z,16.82
2022-08-18T01:59:05.042Z,16.82
2022-08-18T02:01:36.966Z,16.79
2022-08-18T02:04:33.401Z,16.75
2022-08-18T02:06:54.375Z,16.77
2022-08-18T02:09:24.105Z,16.75
2022-08-18T02:11:55.894Z,16.76
2022-08-18T02:14:25.059Z,16.79
2022-08-18T02:17:02.089Z,16.77
2022-08-18T02:19:34.217Z,16.77
2022-08-18T02:22:03.628Z,16.72
2022-08-18T02:24:30.267Z,16.71
2022-08-18T02:26:57.268Z,16.71
2022-08-18T02:29:23.889Z,16.67
2022-08-18T02:31:50.517Z,16.73
2022-08-18T02:34:17.456Z,16.68
2022-08-18T02:36:44.284Z,16.68
2022-08-18T02:39:11.381Z,16.69
2022-08-18T02:41:37.907Z,16.72
2022-08-18T02:44:07.754Z,16.68
2022-08-18T02:46:35.110Z,16.65
2022-08-18T02:49:01.831Z,16.65
2022-08-18T02:51:28.827Z,16.61
2022-08-18T02:53:59.084Z,16.64
2022-08-18T02:56:41.401Z,16.68
2022-08-18T02:59:13.145Z,16.65
2022-08-18T03:01:43.904Z,16.61
2022-08-18T03:04:15.758Z,16.70
2022-08-18T03:06:44.190Z,16.70
2022-08-18T03:09:12.256Z,16.71
2022-08-18T03:11:38.767Z,16.70
2022-08-18T03:14:06.553Z,16.73
2022-08-18T03:16:52.879Z,16.75
2022-08-18T03:19:22.811Z,16.72
2022-08-18T03:21:49.291Z,16.74
2022-08-18T03:24:22.323Z,16.69
2022-08-18T03:26:53.847Z,16.73
2022-08-18T03:29:21.226Z,16.80
2022-08-18T03:31:48.859Z,16.80
2022-08-18T03:34:19.769Z,16.86
2022-08-18T03:36:47.550Z,16.86
2022-08-18T03:39:14.436Z,16.88
2022-08-18T03:41:58.416Z,16.94
2022-08-18T03:44:30.736Z,16.99
2022-08-18T03:46:57.820Z,17.04
2022-08-18T03:49:24.924Z,16.99
2022-08-18T03:51:51.803Z,17.13
2022-08-18T03:54:18.743Z,17.16
2022-08-18T03:56:47.797Z,17.21
2022-08-18T03:59:23.335Z,17.19
2022-08-18T04:01:51.987Z,17.32
2022-08-18T04:04:21.677Z,17.40
2022-08-18T04:06:55.332Z,17.47
2022-08-18T04:09:24.494Z,17.51
2022-08-18T04:11:51.266Z,17.52
2022-08-18T04:14:21.122Z,17.58
2022-08-18T04:16:49.203Z,17.56
2022-08-18T04:19:22.727Z,17.57
2022-08-18T04:21:54.012Z,17.57
2022-08-18T04:24:20.841Z,17.57
2022-08-18T04:26:48.860Z,17.56
2022-08-18T04:29:19.217Z,17.57
2022-08-18T04:31:45.839Z,17.52
2022-08-18T04:34:13.263Z,17.49
2022-08-18T04:36:41.061Z,17.50
2022-08-18T04:39:10.018Z,17.53
2022-08-18T04:41:38.769Z,17.50
2022-08-18T04:44:08.705Z,17.51
2022-08-18T04:46:39.715Z,17.53
2022-08-18T04:49:08.065Z,17.52
2022-08-18T04:52:36.209Z,17.47
2022-08-18T04:54:24.861Z,17.47
2022-08-18T04:56:51.433Z,17.47
2022-08-18T04:59:18.414Z,17.50
2022-08-18T05:01:47.667Z,17.54
2022-08-18T05:04:16.574Z,17.55
2022-08-18T05:06:44.638Z,17.57
2022-08-18T05:09:16.580Z,17.58
2022-08-18T05:11:49.197Z,17.65
2022-08-18T05:14:17.388Z,17.69
2022-08-18T05:16:48.459Z,17.75
2022-08-18T05:19:26.016Z,17.84
2022-08-18T05:21:59.627Z,17.90
2022-08-18T05:24:37.493Z,17.94
2022-08-18T05:27:05.278Z,18.02
2022-08-18T05:29:41.433Z,18.25
2022-08-18T05:32:09.410Z,18.33
2022-08-18T05:34:36.135Z,18.54
2022-08-18T05:37:05.426Z,18.78
2022-08-18T05:39:46.842Z,18.83
2022-08-18T05:42:17.813Z,19.12
2022-08-18T05:44:50.131Z,19.23
2022-08-18T05:47:27.909Z,19.35
2022-08-18T05:49:57.307Z,19.54
2022-08-18T05:52:55.158Z,19.71
2022-08-18T05:55:50.566Z,20.13
2022-08-18T05:58:42.195Z,20.51
2022-08-18T06:01:18.679Z,20.76
2022-08-18T06:04:02.120Z,21.19
2022-08-18T06:06:30.819Z,21.23
2022-08-18T06:09:10.688Z,21.22
2022-08-18T06:11:37.467Z,21.43
2022-08-18T06:14:04.717Z,21.61
2022-08-18T06:16:59.035Z,21.75
2022-08-18T06:19:59.653Z,21.83
2022-08-18T06:22:52.666Z,21.99
2022-08-18T06:25:38.029Z,21.98
2022-08-18T06:28:15.967Z,22.21
2022-08-18T06:30:42.534Z,22.47
2022-08-18T06:33:34.218Z,22.53
2022-08-18T06:36:21.684Z,22.63
2022-08-18T06:38:57.430Z,22.64
2022-08-18T06:41:45.254Z,22.57
2022-08-18T06:44:24.162Z,22.32
2022-08-18T06:47:04.314Z,22.42
2022-08-18T06:50:08.368Z,22.03
2022-08-18T06:52:38.641Z,22.32
2022-08-18T06:55:16.497Z,22.46
2022-08-18T06:57:59.041Z,22.87
2022-08-18T07:00:32.495Z,22.50
2022-08-18T07:03:16.120Z,22.64
2022-08-18T07:06:02.993Z,22.97
2022-08-18T07:08:29.442Z,23.09
2022-08-18T07:11:05.285Z,22.70
2022-08-18T07:13:41.873Z,22.67
2022-08-18T07:16:54.508Z,22.12
2022-08-18T07:19:20.665Z,22.32
2022-08-18T07:22:02.139Z,22.41
2022-08-18T07:24:37.450Z,22.14
2022-08-18T07:27:15.391Z,22.38
2022-08-18T07:29:59.263Z,22.32
2022-08-18T07:32:36.299Z,22.99
2022-08-18T07:35:06.991Z,22.98
2022-08-18T07:37:56.471Z,22.75
2022-08-18T07:41:15.669Z,22.50
2022-08-18T07:44:16.502Z,22.00
2022-08-18T07:46:59.597Z,21.71
2022-08-18T07:49:33.392Z,21.43
2022-08-18T07:52:44.453Z,21.68
2022-08-18T07:55:28.833Z,21.53
2022-08-18T07:58:25.812Z,21.48
2022-08-18T08:01:15.607Z,21.82
2022-08-18T08:03:58.483Z,22.67
2022-08-18T08:06:37.900Z,22.47
2022-08-18T08:09:51.657Z,22.29
2022-08-18T08:12:27.325Z,21.95
2022-08-18T08:15:27.478Z,21.74
2022-08-18T08:18:20.982Z,21.65
2022-08-18T08:21:10.885Z,21.66
2022-08-18T08:23:57.987Z,21.49
2022-08-18T08:26:45.344Z,21.26
2022-08-18T08:29:57.338Z,21.09
2022-08-18T08:32:50.803Z,21.00
2022-08-18T08:35:49.857Z,21.03
2022-08-18T08:38:44.478Z,21.03
2022-08-18T08:41:19.983Z,21.46
2022-08-18T08:44:08.000Z,22.30
2022-08-18T08:47:00.131Z,22.70
2022-08-18T08:49:35.649Z,22.45
2022-08-18T08:52:18.958Z,22.57
2022-08-18T08:55:03.516Z,22.52
2022-08-18T08:57:50.708Z,22.33
2022-08-18T09:00:18.107Z,22.04
2022-08-18T09:03:12.185Z,22.33
2022-08-18T09:06:13.372Z,22.16
2022-08-18T09:09:09.019Z,22.40
2022-08-18T09:12:25.483Z,23.56
2022-08-18T09:15:15.369Z,23.46
2022-08-18T09:17:54.159Z,23.05
2022-08-18T09:20:49.229Z,22.85
2022-08-18T09:23:28.306Z,22.72
2022-08-18T09:26:00.310Z,22.59
2022-08-18T09:28:29.963Z,22.00
2022-08-18T09:31:03.042Z,21.67
2022-08-18T09:33:40.408Z,21.46
2022-08-18T09:36:20.083Z,21.38
2022-08-18T09:39:15.615Z,21.53
2022-08-18T09:42:10.974Z,21.47
2022-08-18T09:44:41.159Z,21.96
2022-08-18T09:47:10.181Z,22.70
2022-08-18T09:49:47.917Z,23.21
2022-08-18T09:52:33.022Z,23.19
2022-08-18T09:54:59.523Z,23.08
2022-08-18T09:57:42.246Z,23.58
2022-08-18T10:00:12.420Z,24.19
2022-08-18T10:02:40.223Z,24.28
2022-08-18T10:05:16.027Z,24.20
2022-08-18T10:07:45.602Z,23.54
2022-08-18T10:11:00.685Z,23.40
2022-08-18T10:13:26.785Z,23.24
2022-08-18T10:16:10.383Z,23.33
2022-08-18T10:19:10.930Z,24.15
2022-08-18T10:21:58.701Z,24.38
2022-08-18T10:24:55.610Z,24.82
2022-08-18T10:27:46.432Z,24.65
2022-08-18T10:30:28.166Z,24.48
2022-08-18T10:33:00.130Z,24.49
2022-08-18T10:35:38.881Z,24.67
2022-08-18T10:38:26.265Z,24.86
2022-08-18T10:41:15.503Z,25.19
2022-08-18T10:43:57.670Z,25.45
2022-08-18T10:46:31.836Z,25.11
2022-08-18T10:49:17.370Z,24.88
2022-08-18T10:52:01.445Z,24.92
2022-08-18T10:57:37.225Z,25.24
2022-08-18T11:00:10.300Z,24.45
2022-08-18T11:02:46.131Z,24.11
2022-08-18T11:05:20.240Z,24.02
2022-08-18T11:07:52.214Z,24.47
2022-08-18T11:10:57.543Z,24.56
2022-08-18T11:14:00.974Z,24.07
2022-08-18T11:16:41.559Z,23.67
2022-08-18T11:22:02.453Z,23.67
2022-08-18T11:24:32.274Z,23.91
2022-08-18T11:27:17.447Z,24.23
2022-08-18T11:29:44.618Z,24.34
2022-08-18T11:32:29.177Z,23.86
2022-08-18T11:34:59.541Z,24.40
2022-08-18T11:37:45.193Z,24.25
2022-08-18T11:41:02.145Z,23.70
2022-08-18T11:43:11.805Z,24.02
2022-08-18T11:45:44.538Z,24.25
2022-08-18T11:51:23.685Z,24.41
2022-08-18T11:53:57.971Z,24.54
2022-08-18T11:56:35.659Z,24.79
2022-08-18T11:59:53.957Z,25.00
2022-08-18T12:02:18.244Z,24.60
2022-08-18T12:04:53.277Z,24.79
2022-08-18T12:07:33.566Z,24.70
2022-08-18T12:10:26.519Z,24.70
2022-08-18T12:15:47.736Z,24.91
2022-08-18T12:18:26.101Z,24.46
2022-08-18T12:20:56.608Z,24.11
2022-08-18T12:23:24.028Z,23.96
2022-08-18T12:25:51.715Z,23.83
2022-08-18T12:28:19.751Z,23.98
2022-08-18T12:30:57.166Z,23.53
2022-08-18T12:36:11.219Z,24.35
2022-08-18T12:38:43.569Z,24.45
2022-08-18T12:41:12.219Z,24.44
2022-08-18T12:43:39.855Z,24.63
2022-08-18T12:46:11.855Z,24.94
2022-08-18T12:48:39.189Z,24.87
2022-08-18T12:51:07.420Z,24.42
2022-08-18T12:53:58.416Z,24.69
2022-08-18T12:56:26.636Z,25.11
2022-08-18T12:58:55.484Z,25.60
2022-08-18T13:01:23.617Z,25.72
2022-08-18T13:04:11.339Z,25.40
2022-08-18T13:06:48.581Z,25.11
2022-08-18T13:09:34.910Z,25.10
2022-08-18T13:12:16.039Z,24.82
2022-08-18T13:14:43.477Z,24.89
2022-08-18T13:17:15.268Z,24.91
2022-08-18T13:19:56.791Z,24.70
2022-08-18T13:22:24.271Z,24.67
2022-08-18T13:25:00.571Z,24.75
2022-08-18T13:27:27.152Z,24.69
2022-08-18T13:29:59.698Z,24.55
2022-08-18T13:32:26.285Z,24.52
2022-08-18T13:34:56.676Z,24.52
2022-08-18T13:37:26.489Z,24.52
2022-08-18T13:39:54.558Z,24.36
2022-08-18T13:42:26.634Z,24.21
2022-08-18T13:45:24.607Z,24.32
2022-08-18T13:47:49.952Z,24.12
2022-08-18T13:50:19.612Z,23.93
2022-08-18T13:52:46.934Z,23.79
2022-08-18T13:55:17.676Z,23.90
2022-08-18T13:57:49.803Z,23.80
2022-08-18T14:00:27.824Z,23.81
2022-08-18T14:02:58.863Z,23.93
2022-08-18T14:05:36.612Z,23.95
2022-08-18T14:08:12.523Z,23.86
2022-08-18T14:10:51.065Z,23.96
2022-08-18T14:13:20.664Z,23.99
2022-08-18T14:15:54.892Z,23.98
2022-08-18T14:18:30.610Z,23.87
2022-08-18T14:21:16.995Z,23.88
2022-08-18T14:24:10.369Z,23.72
2022-08-18T14:26:50.436Z,23.67
2022-08-18T14:29:18.055Z,23.61
2022-08-18T14:32:06.424Z,23.62
2022-08-18T14:34:33.156Z,23.56
2022-08-18T14:36:59.704Z,23.45
2022-08-18T14:39:26.232Z,23.54
2022-08-18T14:41:56.225Z,23.57
2022-08-18T14:44:30.265Z,23.63
2022-08-18T14:46:59.176Z,23.69
2022-08-18T14:49:28.175Z,23.71
2022-08-18T14:51:56.093Z,23.67
2022-08-18T14:54:23.761Z,23.50
2022-08-18T14:56:55.725Z,23.59
2022-08-18T14:59:23.223Z,23.57
2022-08-18T15:01:51.334Z,23.56
2022-08-18T15:04:18.734Z,23.62
2022-08-18T15:06:56.430Z,23.73
2022-08-18T15:09:26.978Z,23.79
2022-08-18T15:11:56.318Z,23.76
2022-08-18T15:14:26.619Z,23.72
2022-08-18T15:17:11.788Z,23.63
2022-08-18T15:19:58.683Z,23.53
2022-08-18T15:22:44.781Z,23.44
2022-08-18T15:25:30.025Z,23.39
2022-08-18T15:27:57.662Z,23.38
2022-08-18T15:30:25.293Z,23.38
2022-08-18T15:32:52.125Z,23.50
2022-08-18T15:35:19.810Z,23.56
2022-08-18T15:37:51.407Z,23.76
2022-08-18T15:40:31.238Z,23.70
2022-08-18T15:43:09.763Z,23.67
2022-08-18T15:45:43.469Z,23.57
2022-08-18T15:48:24.613Z,23.48
2022-08-18T15:50:51.771Z,23.54
2022-08-18T15:53:25.537Z,23.66
2022-08-18T15:55:57.248Z,23.69
2022-08-18T15:58:26.700Z,23.86
2022-08-18T16:00:55.229Z,23.68
2022-08-18T16:03:21.911Z,23.58
2022-08-18T16:05:54.197Z,23.59
2022-08-18T16:08:23.594Z,23.59
2022-08-18T16:10:50.877Z,23.45
2022-08-18T16:13:17.978Z,23.33
2022-08-18T16:15:46.987Z,23.28
2022-08-18T16:18:15.593Z,23.28
2022-08-18T16:20:43.449Z,23.28
2022-08-18T16:23:14.774Z,23.18
2022-08-18T16:25:42.566Z,23.23
2022-08-18T16:28:09.687Z,23.17
2022-08-18T16:30:36.349Z,23.06
2022-08-18T16:33:05.319Z,23.01
2022-08-18T16:35:32.742Z,22.99
2022-08-18T16:38:09.515Z,22.87
2022-08-18T16:40:36.684Z,22.84
2022-08-18T16:43:04.052Z,22.76
2022-08-18T16:45:32.950Z,22.68
2022-08-18T16:48:00.719Z,22.68
2022-08-18T16:50:28.090Z,22.66
2022-08-18T16:52:54.950Z,22.59
2022-08-18T16:55:21.852Z,22.48
2022-08-18T16:58:06.951Z,22.45
2022-08-18T17:00:54.583Z,22.45
2022-08-18T17:03:41.611Z,22.43
2022-08-18T17:06:12.179Z,22.44
2022-08-18T17:08:40.283Z,22.36
2022-08-18T17:11:10.840Z,22.27
2022-08-18T17:13:37.712Z,22.27
2022-08-18T17:16:06.451Z,22.16
2022-08-18T17:18:33.680Z,22.14
2022-08-18T17:21:07.667Z,22.01
2022-08-18T17:23:38.793Z,21.96
2022-08-18T17:26:09.222Z,21.92
2022-08-18T17:28:50.327Z,21.83
2022-08-18T17:31:20.006Z,21.76
2022-08-18T17:33:46.767Z,21.75
2022-08-18T17:36:22.346Z,21.67
2022-08-18T17:39:00.129Z,21.65
2022-08-18T17:41:27.772Z,21.61
2022-08-18T17:44:00.784Z,21.53
2022-08-18T17:46:35.342Z,21.60
2022-08-18T17:49:15.650Z,21.49
2022-08-18T17:51:52.553Z,21.42
2022-08-18T17:54:36.903Z,21.37
2022-08-18T17:57:16.454Z,21.33
2022-08-18T17:59:57.962Z,21.22
2022-08-18T18:02:29.838Z,21.17
2022-08-18T18:05:03.187Z,21.15
2022-08-18T18:07:45.201Z,21.11
2022-08-18T18:10:23.745Z,21.02
2022-08-18T18:13:28.617Z,20.98
2022-08-18T18:15:58.372Z,20.94
2022-08-18T18:18:43.235Z,20.91
2022-08-18T18:21:15.934Z,20.87
2022-08-18T18:23:48.840Z,20.79
2022-08-18T18:26:35.617Z,20.73
2022-08-18T18:29:38.251Z,20.67
2022-08-18T18:32:17.221Z,20.61
2022-08-18T18:35:01.870Z,20.43
2022-08-18T18:37:33.120Z,20.53
2022-08-18T18:40:02.833Z,20.44
2022-08-18T18:42:32.637Z,20.37
2022-08-18T18:45:02.046Z,20.30
2022-08-18T18:47:50.185Z,20.31
2022-08-18T18:50:28.641Z,20.29
2022-08-18T18:53:16.286Z,20.26
2022-08-18T18:55:55.469Z,20.23
2022-08-18T18:59:01.526Z,20.17
2022-08-18T19:01:42.027Z,20.08
2022-08-18T19:04:18.588Z,20.05
2022-08-18T19:06:50.369Z,20.00
2022-08-18T19:09:29.551Z,19.94
2022-08-18T19:12:03.758Z,19.94
2022-08-18T19:14:36.048Z,19.91
2022-08-18T19:17:15.982Z,19.86
2022-08-18T19:19:51.795Z,19.84
2022-08-18T19:22:31.986Z,19.80
2022-08-18T19:25:06.387Z,19.74
2022-08-18T19:27:39.801Z,19.70
2022-08-18T19:30:13.326Z,19.68
2022-08-18T19:32:47.245Z,19.67
2022-08-18T19:35:19.577Z,19.62
2022-08-18T19:38:09.653Z,19.52
2022-08-18T19:40:50.477Z,19.46
2022-08-18T19:43:26.768Z,19.43
2022-08-18T19:46:01.679Z,19.42
2022-08-18T19:48:38.209Z,19.35
2022-08-18T19:51:12.371Z,19.31
2022-08-18T19:53:57.129Z,19.33
2022-08-18T19:57:23.303Z,19.29
2022-08-18T20:00:11.862Z,19.23
2022-08-18T20:03:19.490Z,19.22
2022-08-18T20:05:56.505Z,19.16
2022-08-18T20:08:51.222Z,19.06
2022-08-18T20:11:48.651Z,18.98
2022-08-18T20:14:21.050Z,18.88
2022-08-18T20:17:08.784Z,18.84
2022-08-18T20:19:43.533Z,18.75
2022-08-18T20:22:16.067Z,18.72
2022-08-18T20:24:45.877Z,18.62
2022-08-18T20:27:26.454Z,18.57
2022-08-18T20:30:27.459Z,18.63
2022-08-18T20:33:10.330Z,18.61
2022-08-18T20:35:51.954Z,18.58
2022-08-18T20:38:47.085Z,18.52
2022-08-18T20:41:41.129Z,18.47
2022-08-18T20:44:29.416Z,18.42
2022-08-18T20:47:43.437Z,18.36
2022-08-18T20:50:34.930Z,18.31
2022-08-18T20:53:10.656Z,18.26
2022-08-18T20:56:12.891Z,18.19
2022-08-18T20:59:08.565Z,18.12
2022-08-18T21:01:36.829Z,18.11
2022-08-18T21:04:05.350Z,18.04
2022-08-18T21:06:37.489Z,17.94
2022-08-18T21:09:04.892Z,17.97
2022-08-18T21:11:45.757Z,17.95
2022-08-18T21:14:14.985Z,17.90
2022-08-18T21:16:45.987Z,17.84
2022-08-18T21:19:24.761Z,17.83
2022-08-18T21:21:55.249Z,17.73
2022-08-18T21:24:33.525Z,17.78
2022-08-18T21:27:06.361Z,17.72
2022-08-18T21:29:44.234Z,17.72
2022-08-18T21:32:24.342Z,17.68
2022-08-18T21:34:51.293Z,17.66
2022-08-18T21:37:18.963Z,17.64
2022-08-18T21:40:00.918Z,17.61
2022-08-18T21:42:40.588Z,17.56
2022-08-18T21:45:15.530Z,17.54
2022-08-18T21:47:52.523Z,17.48
2022-08-18T21:50:23.081Z,17.45
2022-08-18T21:52:53.806Z,17.46
2022-08-18T21:55:34.082Z,17.42
2022-08-18T21:58:18.383Z,17.40
2022-08-18T22:01:13.925Z,17.33
2022-08-18T22:03:49.557Z,17.32
2022-08-18T22:06:27.301Z,17.29
2022-08-18T22:09:21.590Z,17.24
2022-08-18T22:12:06.800Z,17.21
2022-08-18T22:14:54.963Z,17.20
2022-08-18T22:17:40.415Z,17.19
2022-08-18T22:20:34.886Z,17.19
2022-08-18T22:23:26.678Z,17.13
2022-08-18T22:25:53.354Z,17.05
2022-08-18T22:28:23.052Z,17.07
2022-08-18T22:30:49.596Z,17.04
2022-08-18T22:33:16.935Z,17.04
2022-08-18T22:35:45.031Z,17.15
2022-08-18T22:38:12.501Z,17.11
2022-08-18T22:40:39.082Z,17.16
2022-08-18T22:43:05.769Z,17.16
2022-08-18T22:45:34.089Z,17.16
2022-08-18T22:48:01.138Z,17.16
2022-08-18T22:50:27.845Z,17.18
2022-08-18T22:52:54.582Z,17.18
2022-08-18T22:55:23.818Z,17.17
2022-08-18T22:57:55.806Z,17.17
2022-08-18T23:00:23.615Z,17.13
2022-08-18T23:02:52.419Z,17.10
2022-08-18T23:05:19.285Z,17.14
2022-08-18T23:07:46.194Z,17.07
2022-08-18T23:10:13.971Z,17.04
2022-08-18T23:12:43.039Z,17.02
2022-08-18T23:15:13.857Z,16.98
2022-08-18T23:17:42.164Z,16.93
2022-08-18T23:20:12.400Z,16.92
2022-08-18T23:22:45.429Z,16.95
2022-08-18T23:25:13.267Z,16.91
2022-08-18T23:27:39.813Z,16.91
2022-08-18T23:30:06.885Z,16.89
2022-08-18T23:32:33.422Z,16.89
2022-08-18T23:35:00.703Z,16.83
2022-08-18T23:37:27.284Z,16.81
2022-08-18T23:39:54.023Z,16.75
2022-08-18T23:42:22.944Z,16.75
2022-08-18T23:44:49.907Z,16.74
2022-08-18T23:47:18.574Z,16.71
2022-08-18T23:49:45.089Z,16.73
2022-08-18T23:52:11.642Z,16.68
2022-08-18T23:54:39.067Z,16.67
2022-08-18T23:57:05.857Z,16.59
2022-08-18T23:59:32.448Z,16.58
